Time;durP1;ratioP1;P1;durP2;ratioP2;P2;SDS_P1;SDS_P2;PMS_P1;PMS_P2;Temp;Humidity;BMP_temperature;BMP_pressure;BME280_temperature;BME280_humidity;BME280_pressure;Samples;Min_cycle;Max_cycle;Signal;HPM_P1;HPM_P2
2022/08/11 00:00:43;;;;;;;5.78;3.20;;;;;;;20.22;51.40;102179.41;5006775;28;20030;-57
2022/08/11 00:03:10;;;;;;;8.10;3.25;;;;;;;20.19;51.21;102180.63;5005704;28;20045;-56
2022/08/11 00:05:50;;;;;;;8.25;3.30;;;;;;;20.17;51.70;102189.97;5007691;28;20399;-57
2022/08/11 00:08:34;;;;;;;9.93;3.40;;;;;;;20.09;51.66;102181.00;5007527;28;20030;-57
2022/08/11 00:11:03;;;;;;;4.25;3.22;;;;;;;20.02;52.31;102182.03;5007156;28;20137;-57
2022/08/11 00:13:33;;;;;;;3.92;3.25;;;;;;;19.97;52.55;102188.03;5008418;28;20410;-57
2022/08/11 00:16:00;;;;;;;4.85;3.20;;;;;;;19.88;52.43;102174.88;5012134;28;20030;-57
2022/08/11 00:18:26;;;;;;;6.40;3.22;;;;;;;19.85;52.88;102175.28;5006827;28;20014;-57
2022/08/11 00:20:59;;;;;;;3.72;3.05;;;;;;;19.83;53.17;102183.56;4998036;28;20088;-56
2022/08/11 00:23:25;;;;;;;7.13;3.28;;;;;;;19.78;53.10;102183.34;5005337;28;20120;-56
2022/08/11 00:25:51;;;;;;;6.00;3.33;;;;;;;19.71;53.45;102186.00;5009113;28;20037;-57
2022/08/11 00:28:29;;;;;;;6.63;3.08;;;;;;;19.70;53.17;102186.22;5003090;28;20032;-57
2022/08/11 00:30:57;;;;;;;4.53;3.45;;;;;;;19.64;53.29;102182.41;5002093;28;20555;-57
2022/08/11 00:33:31;;;;;;;3.65;3.17;;;;;;;19.57;53.51;102173.47;5006959;28;20405;-57
2022/08/11 00:35:58;;;;;;;12.38;3.60;;;;;;;19.49;53.64;102176.28;5003602;28;20065;-57
2022/08/11 00:38:28;;;;;;;5.88;3.40;;;;;;;19.47;53.54;102176.50;5007399;28;20018;-56
2022/08/11 00:41:10;;;;;;;6.13;3.40;;;;;;;19.45;53.58;102181.25;5008005;28;20034;-57
2022/08/11 00:43:50;;;;;;;8.70;3.70;;;;;;;19.39;53.72;102171.25;5008563;28;20029;-57
2022/08/11 00:46:24;;;;;;;7.95;3.67;;;;;;;19.35;54.20;102172.66;5010984;28;20108;-57
2022/08/11 00:49:12;;;;;;;6.85;3.72;;;;;;;19.20;54.56;102166.53;4998475;28;20026;-56
2022/08/11 00:51:56;;;;;;;4.07;3.40;;;;;;;19.17;54.55;102175.00;5000035;28;20112;-57
2022/08/11 00:54:31;;;;;;;8.50;3.42;;;;;;;19.18;54.71;102171.28;5001081;28;20413;-55
2022/08/11 00:57:09;;;;;;;6.57;3.42;;;;;;;18.94;54.81;102172.53;5006561;28;20040;-56
2022/08/11 01:00:03;;;;;;;4.75;3.50;;;;;;;18.92;54.88;102177.28;5007916;28;20103;-56
2022/08/11 01:03:04;;;;;;;10.60;3.30;;;;;;;18.83;55.25;102173.06;5012025;28;20042;-56
2022/08/11 01:05:54;;;;;;;4.78;3.60;;;;;;;18.67;55.51;102175.97;5011923;28;20026;-57
2022/08/11 01:08:34;;;;;;;5.38;3.80;;;;;;;18.43;56.12;102177.97;5012209;28;20033;-57
2022/08/11 01:11:27;;;;;;;6.15;3.55;;;;;;;18.46;56.55;102171.38;5016973;28;20032;-55
2022/08/11 01:14:04;;;;;;;5.18;3.90;;;;;;;18.33;56.30;102182.00;5007809;28;20033;-56
2022/08/11 01:17:04;;;;;;;7.35;3.85;;;;;;;18.41;56.66;102173.81;5011673;28;20112;-57
2022/08/11 01:20:24;;;;;;;8.63;3.70;;;;;;;18.40;56.57;102180.22;5008374;28;20076;-56
2022/08/11 01:23:26;;;;;;;7.32;4.38;;;;;;;18.39;56.86;102173.16;4948606;28;20084;-56
2022/08/11 01:26:36;;;;;;;5.53;3.90;;;;;;;18.33;57.05;102177.44;5003917;28;20413;-56
2022/08/11 01:29:22;;;;;;;8.73;4.10;;;;;;;18.16;56.98;102178.66;5009978;28;20041;-56
2022/08/11 01:32:26;;;;;;;5.85;3.90;;;;;;;18.14;57.67;102183.41;5004451;28;20200;-57
2022/08/11 01:35:06;;;;;;;5.22;3.95;;;;;;;18.14;57.50;102180.72;5011690;28;20080;-56
2022/08/11 01:37:52;;;;;;;6.75;4.03;;;;;;;18.05;57.62;102174.63;5012841;28;20036;-56
2022/08/11 01:40:28;;;;;;;7.35;4.38;;;;;;;17.93;57.63;102176.13;5004710;28;20474;-56
2022/08/11 01:46:11;;;;;;;8.60;4.20;;;;;;;17.98;58.01;102172.88;5006947;28;20040;-56
2022/08/11 01:48:56;;;;;;;8.30;4.07;;;;;;;18.09;57.78;102170.53;5008538;28;20501;-56
2022/08/11 01:51:45;;;;;;;6.28;4.10;;;;;;;18.16;58.05;102170.59;5009337;28;20029;-56
2022/08/11 01:54:29;;;;;;;5.43;4.20;;;;;;;17.97;58.57;102168.53;5010474;28;20354;-56
2022/08/11 01:57:09;;;;;;;6.88;4.55;;;;;;;17.92;58.52;102167.19;5005694;28;20072;-56
2022/08/11 01:59:48;;;;;;;7.78;4.40;;;;;;;18.07;58.79;102171.75;5009442;28;20045;-55
2022/08/11 02:03:08;;;;;;;9.20;4.18;;;;;;;18.08;58.76;102174.25;5006597;28;20117;-56
2022/08/11 02:06:53;;;;;;;5.00;3.95;;;;;;;17.91;58.83;102173.59;5003164;28;20056;-57
2022/08/11 02:09:07;;;;;;;6.80;4.15;;;;;;;17.89;58.75;102177.50;5004788;28;20038;-56
2022/08/11 02:11:36;;;;;;;5.97;4.55;;;;;;;17.82;58.94;102177.41;5008999;28;20025;-57
2022/08/11 02:14:21;;;;;;;;;;;;;;;18.10;58.39;102180.25;5010196;28;20045;-57
2022/08/11 02:17:18;;;;;;;6.20;4.15;;;;;;;18.04;58.34;102181.03;5010643;28;19913;-57
2022/08/11 02:25:57;;;;;;;5.35;4.18;;;;;;;17.74;58.85;102182.88;5007985;28;20045;-56
2022/08/11 02:28:54;;;;;;;5.90;4.40;;;;;;;17.83;59.00;102183.63;5008653;28;20018;-56
2022/08/11 02:34:20;;;;;;;9.65;4.55;;;;;;;17.87;59.40;102174.16;5012843;28;20598;-57
2022/08/11 02:36:55;;;;;;;7.82;4.47;;;;;;;17.86;59.68;102180.56;5006544;28;20040;-56
2022/08/11 02:39:24;;;;;;;4.68;4.20;;;;;;;17.92;59.31;102175.25;5006805;28;20059;-56
2022/08/11 02:42:23;;;;;;;7.78;4.40;;;;;;;17.96;59.11;102167.69;5010684;28;20030;-57
2022/08/11 02:45:10;;;;;;;7.10;4.53;;;;;;;18.01;59.27;102167.13;5010198;28;20029;-57
2022/08/11 02:50:48;;;;;;;7.30;4.80;;;;;;;17.86;60.16;102159.06;5012419;28;20044;-56
2022/08/11 02:53:28;;;;;;;8.43;5.03;;;;;;;17.86;59.96;102167.13;5008161;28;20018;-57
2022/08/11 02:56:09;;;;;;;7.20;4.82;;;;;;;17.93;60.36;102174.28;5004239;28;20485;-57
2022/08/11 03:01:56;;;;;;;5.75;5.13;;;;;;;17.89;59.93;102175.63;5009680;28;20044;-57
2022/08/11 03:04:36;;;;;;;6.45;4.75;;;;;;;17.83;60.19;102173.69;5009795;28;20058;-57
2022/08/11 03:07:33;;;;;;;7.43;4.80;;;;;;;17.78;60.13;102181.50;5009818;28;20037;-58
2022/08/11 03:10:22;;;;;;;6.70;4.60;;;;;;;17.75;60.05;102168.44;5007682;28;20091;-58
2022/08/11 03:19:29;;;;;;;6.20;4.60;;;;;;;17.73;60.65;102169.63;5011396;28;20087;-56
2022/08/11 03:22:06;;;;;;;7.10;4.95;;;;;;;17.62;60.31;102169.03;4987905;28;20041;-56
2022/08/11 03:24:54;;;;;;;10.50;5.22;;;;;;;17.62;60.37;102169.03;5007342;28;20039;-57
2022/08/11 03:27:56;;;;;;;7.30;4.88;;;;;;;17.63;60.56;102168.00;5006412;28;20038;-57
2022/08/11 03:30:48;;;;;;;6.72;4.88;;;;;;;17.50;60.75;102169.69;4985975;28;20038;-56
2022/08/11 03:36:06;;;;;;;8.73;4.97;;;;;;;17.55;60.90;102170.78;5009341;28;20052;-57
2022/08/11 03:38:48;;;;;;;8.75;5.13;;;;;;;17.52;61.19;102175.69;5004667;28;20159;-57
2022/08/11 03:41:43;;;;;;;7.55;5.47;;;;;;;17.51;61.13;102176.72;5003030;28;20037;-55
2022/08/11 03:44:21;;;;;;;7.18;4.95;;;;;;;17.17;61.02;102170.00;5002777;28;20048;-57
2022/08/11 03:46:55;;;;;;;7.80;5.07;;;;;;;17.05;60.87;102166.06;5006273;28;20083;-57
2022/08/11 03:49:33;;;;;;;13.23;5.25;;;;;;;17.17;61.38;102163.78;5004102;28;20505;-57
2022/08/11 03:52:26;;;;;;;9.57;5.00;;;;;;;17.19;61.30;102167.97;5009373;28;20029;-56
2022/08/11 03:55:09;;;;;;;8.27;5.30;;;;;;;17.17;61.42;102164.63;5002383;28;20030;-56
2022/08/11 03:58:03;;;;;;;7.40;5.55;;;;;;;17.22;61.70;102164.06;5006022;28;20022;-56
2022/08/11 04:01:02;;;;;;;11.10;5.50;;;;;;;17.26;61.75;102171.56;5006642;28;20038;-56
2022/08/11 04:03:50;;;;;;;;;;;;;;;17.39;61.58;102172.81;5007066;28;20561;-57
2022/08/11 04:06:47;;;;;;;13.82;5.22;;;;;;;16.96;61.47;102172.50;5009152;28;19913;-56
2022/08/11 04:09:45;;;;;;;7.97;5.25;;;;;;;16.97;61.46;102168.81;5007025;28;20117;-56
2022/08/11 04:12:40;;;;;;;9.88;5.45;;;;;;;16.86;61.95;102163.88;5013783;28;20042;-57
2022/08/11 04:18:33;;;;;;;10.93;5.57;;;;;;;16.88;62.60;102164.53;5007494;28;20037;-56
2022/08/11 04:21:33;;;;;;;10.15;5.40;;;;;;;16.96;62.86;102159.09;5003461;28;20502;-56
2022/08/11 04:24:07;;;;;;;6.55;5.20;;;;;;;16.94;63.45;102169.19;5004895;28;20037;-57
2022/08/11 04:26:43;;;;;;;8.23;5.57;;;;;;;16.81;62.98;102164.41;5009871;28;20033;-56
2022/08/11 04:29:44;;;;;;;18.92;5.70;;;;;;;16.76;62.84;102165.94;5003872;28;20032;-55
2022/08/11 04:32:30;;;;;;;18.90;5.75;;;;;;;16.77;63.07;102164.94;5005400;28;20029;-56
2022/08/11 04:35:07;;;;;;;9.55;6.15;;;;;;;16.59;63.27;102162.53;5010391;28;20026;-56
2022/08/11 04:37:55;;;;;;;13.10;5.85;;;;;;;16.47;63.32;102167.44;5011522;28;20117;-57
2022/08/11 04:41:13;;;;;;;8.93;5.82;;;;;;;16.60;63.81;102166.88;5011079;28;20048;-56
2022/08/11 04:44:06;;;;;;;8.43;5.83;;;;;;;16.57;63.71;102164.56;5013241;28;20029;-56
2022/08/11 04:46:54;;;;;;;11.32;6.47;;;;;;;16.58;64.20;102166.22;5011853;28;20109;-56
2022/08/11 05:02:46;;;;;;;7.43;5.75;;;;;;;16.86;64.31;102161.19;5013657;28;20068;-56
2022/08/11 05:05:45;;;;;;;10.13;6.03;;;;;;;16.95;64.60;102165.47;5013045;28;20057;-56
2022/08/11 05:08:16;;;;;;;8.13;6.78;;;;;;;17.06;64.70;102161.50;5007666;28;20087;-57
2022/08/11 05:10:44;;;;;;;10.70;6.45;;;;;;;17.14;65.20;102164.97;5011831;28;20025;-56
2022/08/11 05:36:09;;;;;;;9.52;6.38;;;;;;;18.35;64.16;102170.03;5008757;28;19919;-55
2022/08/11 05:58:01;;;;;;;11.50;6.53;;;;;;;18.80;62.31;102173.44;5010794;28;20029;-56
2022/08/11 06:00:27;;;;;;;9.35;6.47;;;;;;;18.79;62.12;102175.31;5010590;28;20025;-56
2022/08/11 06:03:00;;;;;;;9.65;6.30;;;;;;;18.83;62.12;102179.28;5006667;28;20037;-57
2022/08/11 06:05:36;;;;;;;16.77;6.78;;;;;;;18.87;61.45;102177.03;5004861;28;20022;-56
2022/08/11 06:08:04;;;;;;;11.57;6.43;;;;;;;18.91;61.62;102180.16;5008755;28;20030;-56
2022/08/11 06:10:35;;;;;;;13.32;6.90;;;;;;;18.98;61.59;102176.50;5007025;28;20492;-56
2022/08/11 06:13:03;;;;;;;14.05;6.97;;;;;;;19.06;62.00;102191.69;5011716;28;20135;-56
2022/08/11 06:15:33;;;;;;;11.15;6.28;;;;;;;19.16;62.00;102184.13;5002952;28;20445;-56
2022/08/11 06:18:01;;;;;;;13.88;6.68;;;;;;;19.22;61.47;102191.41;4998558;28;20041;-57
2022/08/11 06:20:31;;;;;;;13.73;7.23;;;;;;;19.27;61.59;102188.97;4994934;28;20026;-56
2022/08/11 06:23:01;;;;;;;11.95;6.75;;;;;;;19.30;61.42;102179.66;5000259;28;20147;-56
2022/08/11 06:25:32;;;;;;;13.18;6.68;;;;;;;19.43;61.46;102183.31;5007870;28;20485;-57
2022/08/11 06:27:58;;;;;;;9.20;6.53;;;;;;;19.51;61.05;102187.69;5004932;28;20029;-56
2022/08/11 06:30:39;;;;;;;11.20;6.57;;;;;;;19.57;61.45;102186.94;5009372;28;20397;-57
2022/08/11 06:33:29;;;;;;;16.58;6.40;;;;;;;19.66;61.53;102193.88;5006611;28;20033;-56
2022/08/11 06:36:14;;;;;;;13.70;7.18;;;;;;;19.78;61.11;102186.03;4985285;28;20044;-57
2022/08/11 06:39:11;;;;;;;10.93;6.38;;;;;;;19.84;60.93;102179.00;5002085;28;20029;-56
2022/08/11 06:42:03;;;;;;;12.23;6.28;;;;;;;19.96;61.04;102185.53;4997264;28;20041;-56
2022/08/11 06:44:32;;;;;;;11.73;6.00;;;;;;;20.07;60.68;102187.66;4998345;28;20252;-56
2022/08/11 06:47:06;;;;;;;13.98;6.38;;;;;;;20.13;60.23;102186.84;4996254;28;20450;-56
2022/08/11 06:52:32;;;;;;;10.25;6.22;;;;;;;20.33;58.85;102186.94;5003325;28;20044;-58
2022/08/11 06:55:07;;;;;;;11.48;5.97;;;;;;;20.44;59.10;102194.47;5006394;28;20030;-57
2022/08/11 07:00:28;;;;;;;9.48;7.22;;;;;;;20.65;58.39;102188.91;5006917;28;20037;-57
2022/08/11 07:03:00;;;;;;;10.45;7.78;;;;;;;20.71;58.23;102189.97;5007534;28;20033;-58
2022/08/11 07:05:59;;;;;;;18.77;5.88;;;;;;;20.86;57.99;102192.50;5010672;28;20529;-57
2022/08/11 07:17:24;;;;;;;8.70;5.93;;;;;;;21.19;56.68;102197.91;5010605;28;20068;-56
2022/08/11 07:31:16;;;;;;;9.77;5.72;;;;;;;21.64;53.89;102185.41;4992047;28;20045;-57
2022/08/11 07:33:48;;;;;;;21.20;12.57;;;;;;;21.71;53.40;102186.25;5007703;28;20025;-57
2022/08/11 07:36:15;;;;;;;13.68;6.13;;;;;;;21.81;53.34;102192.03;4999693;28;20032;-57
2022/08/11 07:38:49;;;;;;;10.35;5.70;;;;;;;21.89;52.86;102185.56;5000595;28;20026;-57
2022/08/11 07:41:18;;;;;;;9.43;5.55;;;;;;;22.02;53.02;102182.84;5008033;28;20033;-57
2022/08/11 07:43:50;;;;;;;9.32;5.38;;;;;;;22.07;52.51;102188.47;5006452;28;20030;-57
2022/08/11 07:54:32;;;;;;;8.93;4.97;;;;;;;22.45;51.74;102190.38;5003260;28;20670;-56
2022/08/11 07:56:58;;;;;;;8.20;4.70;;;;;;;22.52;51.23;102188.44;4999586;28;20574;-58
2022/08/11 08:18:40;;;;;;;9.77;4.47;;;;;;;23.08;47.84;102193.09;5004107;28;20041;-58
2022/08/11 08:21:13;;;;;;;11.30;4.05;;;;;;;23.10;47.46;102186.41;5009119;28;20037;-59
2022/08/11 08:23:41;;;;;;;6.55;4.05;;;;;;;23.25;48.12;102196.09;5005977;28;20512;-58
2022/08/11 08:26:57;;;;;;;7.43;3.93;;;;;;;23.29;47.49;102192.72;5005259;28;20445;-58
2022/08/11 08:30:46;;;;;;;8.80;3.70;;;;;;;23.36;47.61;102185.34;5001496;28;20044;-59
2022/08/11 08:31:42;;;;;;;6.03;3.90;;;;;;;23.43;46.98;102185.31;5002001;28;20030;-58
2022/08/11 08:34:08;;;;;;;10.07;4.45;;;;;;;23.46;46.78;102174.03;5008171;28;20097;-58
2022/08/11 08:36:34;;;;;;;10.30;4.60;;;;;;;23.56;45.59;102184.38;5003388;28;20026;-58
2022/08/11 08:39:00;;;;;;;11.73;3.72;;;;;;;23.64;45.42;102184.91;4996356;28;20040;-57
2022/08/11 08:41:28;;;;;;;11.98;3.90;;;;;;;23.74;45.49;102193.38;4998925;28;20105;-58
2022/08/11 08:43:58;;;;;;;7.97;3.45;;;;;;;23.83;44.93;102185.75;5003511;28;20088;-58
2022/08/11 08:46:35;;;;;;;9.18;3.78;;;;;;;23.94;44.38;102189.59;5004646;28;20028;-57
2022/08/11 08:49:02;;;;;;;17.67;4.07;;;;;;;24.08;44.57;102185.69;5004187;28;20204;-58
2022/08/11 08:51:34;;;;;;;10.25;3.38;;;;;;;24.14;44.17;102186.63;5000810;28;20061;-57
2022/08/11 08:54:05;;;;;;;10.57;3.65;;;;;;;24.31;43.81;102183.13;5007721;28;20032;-59
2022/08/11 08:56:33;;;;;;;9.75;3.40;;;;;;;24.36;43.73;102188.69;5008969;28;20022;-57
2022/08/11 08:59:00;;;;;;;6.60;3.15;;;;;;;24.46;43.24;102187.28;5006555;28;20075;-58
2022/08/11 09:01:30;;;;;;;10.35;8.27;;;;;;;24.52;43.45;102173.63;4994795;28;20072;-59
2022/08/11 09:03:56;;;;;;;9.20;3.58;;;;;;;24.63;42.72;102191.84;4997427;28;20031;-57
2022/08/11 09:06:21;;;;;;;7.38;3.35;;;;;;;24.72;42.32;102184.19;4994520;28;20088;-57
2022/08/11 09:08:47;;;;;;;8.20;3.50;;;;;;;24.83;42.03;102182.56;5000185;28;20296;-57
2022/08/11 09:13:58;;;;;;;11.68;3.08;;;;;;;25.04;41.50;102182.06;4998684;28;20402;-58
2022/08/11 09:16:24;;;;;;;6.60;3.25;;;;;;;25.21;41.52;102176.75;4996477;28;20049;-57
2022/08/11 09:18:51;;;;;;;7.82;3.35;;;;;;;25.35;41.53;102180.88;4991393;28;20487;-57
2022/08/11 09:21:21;;;;;;;8.20;3.53;;;;;;;25.51;41.54;102182.91;4990894;28;20037;-58
2022/08/11 09:29:18;;;;;;;9.25;3.22;;;;;;;25.86;40.97;102169.28;4995974;28;20088;-58
2022/08/11 09:31:45;;;;;;;12.73;3.30;;;;;;;26.02;40.83;102162.28;4992713;28;20025;-58
2022/08/11 09:34:12;;;;;;;11.95;3.60;;;;;;;26.33;40.43;102169.16;4996447;28;20717;-57
2022/08/11 09:42:09;;;;;;;4.90;3.30;;;;;;;26.86;38.69;102157.00;4996095;28;20050;-58
2022/08/11 09:44:48;;;;;;;8.70;3.35;;;;;;;27.03;38.51;102160.63;4997021;28;20432;-58
2022/08/11 09:47:18;;;;;;;4.30;2.88;;;;;;;27.23;38.45;102165.56;4995651;28;20053;-58
2022/08/11 09:49:45;;;;;;;6.75;3.13;;;;;;;27.41;38.19;102157.09;4991810;28;20549;-58
2022/08/11 09:52:13;;;;;;;6.00;2.90;;;;;;;27.68;38.08;102156.41;4994270;28;20032;-58
2022/08/11 09:54:40;;;;;;;25.90;17.42;;;;;;;27.80;37.36;102157.13;5001290;28;20041;-58
2022/08/11 09:59:52;;;;;;;7.00;2.80;;;;;;;28.18;37.31;102158.09;5007430;28;20052;-58
2022/08/11 10:02:29;;;;;;;6.03;2.90;;;;;;;28.38;37.02;102161.09;5006240;28;20120;-58
2022/08/11 10:07:00;;;;;;;17.50;9.60;;;;;;;28.53;37.02;102154.94;4999787;28;20037;-57
2022/08/11 10:07:51;;;;;;;5.30;2.90;;;;;;;28.57;35.07;102154.16;5010001;28;20385;-58
2022/08/11 10:10:21;;;;;;;6.55;3.10;;;;;;;28.73;35.50;102143.38;5011175;28;20032;-57
2022/08/11 10:13:01;;;;;;;5.63;2.67;;;;;;;28.83;35.32;102143.44;5007224;28;20022;-58
2022/08/11 10:15:38;;;;;;;5.65;3.17;;;;;;;28.67;34.77;102131.56;5008727;28;20034;-59
2022/08/11 10:21:00;;;;;;;6.13;2.70;;;;;;;28.73;33.70;102141.47;5008434;28;20094;-59
2022/08/11 10:28:59;;;;;;;8.88;3.00;;;;;;;29.09;33.40;102134.38;5004446;28;20104;-59
2022/08/11 10:34:09;;;;;;;7.30;2.90;;;;;;;29.48;33.51;102134.91;5009931;28;20633;-59
2022/08/11 10:36:49;;;;;;;6.70;2.60;;;;;;;29.49;32.12;102135.72;5009559;28;20061;-60
2022/08/11 10:39:19;;;;;;;3.78;2.90;;;;;;;29.43;31.59;102120.34;5008007;28;20021;-59
2022/08/11 10:44:36;;;;;;;14.10;9.32;;;;;;;29.59;31.95;102125.69;4998791;28;20041;-59
2022/08/11 10:51:11;;;;;;;6.65;2.40;;;;;;;29.69;30.38;102132.28;4999326;28;20096;-59
2022/08/11 11:00:49;;;;;;;4.88;2.45;;;;;;;29.71;30.01;102111.75;5002245;28;20072;-59
2022/08/11 11:03:14;;;;;;;8.77;2.60;;;;;;;29.86;31.25;102113.72;4994903;28;20059;-58
2022/08/11 11:05:41;;;;;;;6.60;2.47;;;;;;;29.94;30.70;102109.63;5001208;28;20034;-59
2022/08/11 11:10:58;;;;;;;6.00;2.67;;;;;;;29.84;29.68;102107.69;5000766;28;20041;-60
2022/08/11 11:17:54;;;;;;;5.15;2.63;;;;;;;29.87;29.53;102107.97;4998835;28;20036;-60
2022/08/11 11:19:09;;;;;;;4.45;2.38;;;;;;;29.89;29.59;102097.56;4998121;28;20414;-60
2022/08/11 11:21:37;;;;;;;8.10;2.50;;;;;;;29.84;28.69;102099.47;5002929;28;20649;-60
2022/08/11 11:24:44;;;;;;;5.00;2.28;;;;;;;29.83;28.97;102098.66;5000564;28;20030;-59
2022/08/11 11:27:26;;;;;;;3.10;2.03;;;;;;;29.83;28.32;102104.13;4991837;28;20033;-59
2022/08/11 11:30:11;;;;;;;7.18;3.45;;;;;;;29.85;28.54;102088.25;4999207;28;20044;-59
2022/08/11 11:32:45;;;;;;;6.22;2.50;;;;;;;29.83;28.87;102098.66;4996063;28;20027;-59
2022/08/11 11:35:43;;;;;;;4.78;2.35;;;;;;;29.84;29.08;102097.56;5004915;28;20029;-60
2022/08/11 11:38:08;;;;;;;;;;;;;;;30.03;28.95;102094.34;4993980;28;20040;-59
2022/08/11 11:40:36;;;;;;;4.78;2.03;;;;;;;30.17;28.20;102092.75;4997422;28;19914;-60
2022/08/11 11:43:02;;;;;;;6.72;2.13;;;;;;;30.18;28.60;102088.91;4995987;28;20129;-59
2022/08/11 11:45:28;;;;;;;4.90;2.50;;;;;;;30.22;29.04;102090.00;4994107;28;20565;-59
2022/08/11 11:47:56;;;;;;;4.22;2.20;;;;;;;30.11;28.29;102089.19;5008661;28;20030;-59
2022/08/11 11:50:24;;;;;;;11.07;6.45;;;;;;;30.20;28.07;102086.72;5008640;28;20496;-59
2022/08/11 11:52:52;;;;;;;6.43;2.53;;;;;;;30.25;28.22;102077.66;5002579;28;20084;-59
2022/08/11 11:55:19;;;;;;;3.75;2.00;;;;;;;30.25;27.29;102083.16;4996636;28;20478;-60
2022/08/11 12:03:15;;;;;;;5.13;2.45;;;;;;;30.43;27.51;102071.66;5001088;28;20100;-60
2022/08/11 12:05:42;;;;;;;3.47;2.05;;;;;;;30.46;27.53;102066.44;4995761;28;20026;-60
2022/08/11 12:08:18;;;;;;;6.63;2.10;;;;;;;30.53;27.62;102067.00;4993888;28;20022;-60
2022/08/11 12:10:48;;;;;;;4.43;2.22;;;;;;;30.36;27.79;102074.69;4998066;28;20038;-60
2022/08/11 12:16:02;;;;;;;2.70;2.38;;;;;;;30.49;27.66;102060.41;4996351;28;20076;-59
2022/08/11 12:18:39;;;;;;;4.15;2.42;;;;;;;30.32;26.88;102068.06;4996043;28;20068;-60
2022/08/11 12:21:06;;;;;;;6.13;2.88;;;;;;;30.33;27.04;102058.75;4995748;28;20057;-60
2022/08/11 12:29:05;;;;;;;5.35;2.20;;;;;;;30.29;27.25;102046.69;5009134;28;20122;-60
2022/08/11 12:31:32;;;;;;;4.38;2.30;;;;;;;30.38;27.18;102055.22;5006112;28;20080;-59
2022/08/11 12:34:06;;;;;;;4.95;2.30;;;;;;;30.35;26.56;102039.28;5009094;28;20029;-59
2022/08/11 12:36:35;;;;;;;4.60;2.25;;;;;;;30.43;26.35;102047.00;4998426;28;20585;-58
2022/08/11 12:39:04;;;;;;;3.97;2.33;;;;;;;30.32;26.27;102043.41;4994954;28;20432;-59
2022/08/11 12:47:00;;;;;;;4.90;2.40;;;;;;;30.61;26.71;102032.72;4997664;28;20045;-58
2022/08/11 12:52:20;;;;;;;3.72;2.42;;;;;;;30.86;26.78;102022.81;5004053;28;20040;-60
2022/08/11 12:54:59;;;;;;;4.57;2.30;;;;;;;30.92;27.12;102021.69;5001798;28;20026;-61
2022/08/11 13:05:48;;;;;;;7.05;2.22;;;;;;;31.08;25.61;102015.06;5001443;28;20044;-60
2022/08/11 13:08:15;;;;;;;5.25;2.20;;;;;;;31.18;25.83;102014.25;5001403;28;20026;-59
2022/08/11 13:13:26;;;;;;;4.25;2.40;;;;;;;31.18;25.33;101997.78;5001708;28;20043;-59
2022/08/11 13:15:51;;;;;;;5.78;2.58;;;;;;;31.21;25.14;101999.94;5005129;28;20033;-60
2022/08/11 13:18:21;;;;;;;6.22;2.40;;;;;;;31.37;25.29;101996.88;5011334;28;20462;-60
2022/08/11 13:20:48;;;;;;;3.88;1.95;;;;;;;31.59;25.05;101993.72;5006621;28;20587;-60
2022/08/11 13:23:15;;;;;;;6.10;2.20;;;;;;;31.44;24.08;101989.13;5009289;28;20555;-60
2022/08/11 13:25:42;;;;;;;4.15;2.25;;;;;;;31.57;24.17;101989.63;5009524;28;20040;-60
2022/08/11 13:28:09;;;;;;;6.85;2.25;;;;;;;31.62;24.19;101992.34;5001047;28;20057;-60
2022/08/11 13:33:20;;;;;;;5.22;2.22;;;;;;;31.83;24.11;101984.81;5007763;28;20560;-60
2022/08/11 13:35:49;;;;;;;4.00;2.10;;;;;;;31.91;24.05;101984.22;5007235;28;20041;-60
2022/08/11 13:38:17;;;;;;;4.75;2.10;;;;;;;31.88;24.12;101977.34;5001890;28;20104;-59
2022/08/11 13:40:44;;;;;;;15.07;7.90;;;;;;;32.02;23.81;101974.75;5002384;28;20026;-60
2022/08/11 13:43:12;;;;;;;3.55;2.80;;;;;;;32.27;23.98;101977.31;4998324;28;20038;-60
2022/08/11 13:45:37;;;;;;;4.55;2.20;;;;;;;32.50;24.54;101972.16;4999024;28;20036;-60
2022/08/11 13:48:07;;;;;;;4.03;2.10;;;;;;;32.59;23.88;101976.72;5003843;28;20022;-59
2022/08/11 13:53:23;;;;;;;3.95;2.40;;;;;;;33.00;23.41;101970.00;5000369;28;20397;-59
2022/08/11 13:55:49;;;;;;;3.15;2.20;;;;;;;32.94;23.64;101955.44;5000165;28;20022;-57
2022/08/11 13:58:15;;;;;;;3.97;2.13;;;;;;;32.94;23.01;101961.78;5003791;28;20044;-59
2022/08/11 14:00:44;;;;;;;5.78;2.10;;;;;;;32.92;22.87;101960.44;5003828;28;20120;-60
2022/08/11 14:03:11;;;;;;;5.93;2.00;;;;;;;32.97;22.72;101962.31;4998450;28;20409;-60
2022/08/11 14:05:42;;;;;;;4.93;2.10;;;;;;;33.14;22.27;101965.38;5001960;28;20105;-59
2022/08/11 14:08:11;;;;;;;4.63;2.15;;;;;;;33.17;23.12;101962.88;4999157;28;20026;-60
2022/08/11 14:10:38;;;;;;;6.38;3.58;;;;;;;33.38;22.28;101952.44;4999289;28;20033;-59
2022/08/11 14:16:01;;;;;;;6.22;1.95;;;;;;;33.49;22.23;101956.66;5001361;28;20056;-60
2022/08/11 14:18:29;;;;;;;4.70;2.33;;;;;;;33.35;20.75;101947.50;5013122;28;20402;-60
2022/08/11 14:23:51;;;;;;;8.30;1.77;;;;;;;33.52;20.95;101946.97;5010667;28;20117;-60
2022/08/11 14:26:25;;;;;;;3.30;1.90;;;;;;;33.53;20.87;101937.59;4995268;28;20576;-60
2022/08/11 14:28:54;;;;;;;5.82;1.95;;;;;;;33.50;20.33;101938.19;5001519;28;20061;-60
2022/08/11 14:31:21;;;;;;;2.55;1.98;;;;;;;33.30;19.85;101939.31;4999146;28;20595;-60
2022/08/11 14:33:47;;;;;;;2.08;1.80;;;;;;;33.27;19.57;101931.63;5000586;28;20034;-59
2022/08/11 14:36:13;;;;;;;2.42;1.88;;;;;;;33.06;20.25;101944.03;5000766;28;20029;-60
2022/08/11 14:38:40;;;;;;;3.17;1.98;;;;;;;33.17;20.53;101931.75;5000588;28;20065;-60
2022/08/11 14:49:24;;;;;;;1.73;1.63;;;;;;;33.80;21.07;101921.19;4994523;28;20567;-60
2022/08/11 14:51:53;;;;;;;2.00;1.77;;;;;;;33.85;20.56;101926.66;4995350;28;20129;-59
2022/08/11 14:57:08;;;;;;;4.30;1.98;;;;;;;33.86;20.56;101930.22;5006461;28;20623;-60
2022/08/11 14:59:35;;;;;;;3.78;1.90;;;;;;;34.08;21.85;101916.59;5002572;28;20033;-58
2022/08/11 15:04:48;;;;;;;2.78;1.80;;;;;;;34.85;20.97;101909.66;5000868;28;20576;-60
2022/08/11 15:07:14;;;;;;;4.93;2.20;;;;;;;35.24;19.86;101911.81;5001938;28;20029;-60
2022/08/11 15:09:42;;;;;;;4.22;1.98;;;;;;;35.75;20.09;101916.16;5011111;28;20068;-60
2022/08/11 15:12:15;;;;;;;5.97;2.00;;;;;;;36.73;19.69;101902.22;5005849;28;20056;-60
2022/08/11 15:17:28;;;;;;;3.45;1.90;;;;;;;38.52;17.71;101898.00;4997063;28;20083;-60
2022/08/11 15:25:22;;;;;;;2.80;1.70;;;;;;;41.23;15.80;101905.66;4994503;28;20113;-60
2022/08/11 15:39:07;;;;;;;3.85;1.77;;;;;;;45.16;12.24;101894.06;5000066;28;20087;-60
2022/08/11 15:47:56;;;;;;;2.72;1.60;;;;;;;47.07;11.16;101889.25;5001069;28;20064;-61
2022/08/11 15:50:29;;;;;;;3.47;1.73;;;;;;;47.55;10.73;101877.00;5002095;28;20433;-60
2022/08/11 15:53:30;;;;;;;10.82;7.07;;;;;;;49.05;10.59;101883.25;5007607;28;20531;-61
2022/08/11 15:55:57;;;;;;;5.97;1.98;;;;;;;48.35;9.88;101875.41;4997698;28;20033;-61
2022/08/11 16:04:12;;;;;;;2.90;1.70;;;;;;;49.58;9.79;101885.78;5001373;28;20041;-63
2022/08/11 16:06:53;;;;;;;5.63;1.90;;;;;;;50.09;9.26;101870.06;5004113;28;20030;-61
2022/08/11 16:09:46;;;;;;;2.80;1.60;;;;;;;50.09;9.19;101868.06;5008620;28;20029;-61
2022/08/11 16:12:15;;;;;;;2.35;1.75;;;;;;;49.37;8.88;101861.31;5006190;28;20112;-61
2022/08/11 16:17:32;;;;;;;3.13;1.70;;;;;;;48.98;8.68;101867.97;5005755;28;20045;-60
2022/08/11 16:19:59;;;;;;;4.25;1.45;;;;;;;48.48;8.57;101855.22;5005120;28;20029;-61
2022/08/11 16:22:38;;;;;;;2.90;1.63;;;;;;;48.67;9.49;101854.81;5007964;28;20026;-60
2022/08/11 16:25:08;;;;;;;2.95;1.50;;;;;;;48.92;8.54;101852.72;5003776;28;20387;-60
2022/08/11 16:27:43;;;;;;;2.75;1.70;;;;;;;49.16;8.84;101856.59;5003331;28;20061;-61
2022/08/11 16:30:09;;;;;;;1.65;1.50;;;;;;;48.55;8.60;101844.72;5007632;28;20056;-61
2022/08/11 16:32:39;;;;;;;2.50;1.60;;;;;;;49.28;8.93;101853.31;5003924;28;20514;-61
2022/08/11 16:40:47;;;;;;;3.15;1.80;;;;;;;49.51;8.11;101835.81;5012559;28;20076;-61
2022/08/11 16:48:48;;;;;;;1.92;1.60;;;;;;;42.64;10.92;101824.03;5005042;28;20340;-61
2022/08/11 16:51:14;;;;;;;4.20;1.50;;;;;;;40.92;12.20;101822.69;5009887;28;20400;-61
2022/08/11 16:53:43;;;;;;;3.92;1.65;;;;;;;38.91;13.39;101827.34;5004650;28;20033;-60